sensor_id;sensor_type;location;lat;lon;timestamp;pressure;altitude;pressure_sealevel;temperature
68588;BMP180;55560;52.174;20.996;2023-07-31T00:01:55;99910.40;;;19.80
68588;BMP180;55560;52.174;20.996;2023-07-31T00:04:23;99911.60;;;19.80
68588;BMP180;55560;52.174;20.996;2023-07-31T00:06:51;99908.00;;;19.80
68588;BMP180;55560;52.174;20.996;2023-07-31T00:09:19;99906.60;;;19.70
68588;BMP180;55560;52.174;20.996;2023-07-31T00:11:47;99908.60;;;19.70
68588;BMP180;55560;52.174;20.996;2023-07-31T00:14:14;99906.40;;;19.70
68588;BMP180;55560;52.174;20.996;2023-07-31T00:16:42;99910.40;;;19.70
68588;BMP180;55560;52.174;20.996;2023-07-31T00:19:10;99912.80;;;19.70
68588;BMP180;55560;52.174;20.996;2023-07-31T00:21:38;99913.00;;;19.70
68588;BMP180;55560;52.174;20.996;2023-07-31T00:24:06;99912.80;;;19.66
68588;BMP180;55560;52.174;20.996;2023-07-31T00:26:33;99910.20;;;19.60
68588;BMP180;55560;52.174;20.996;2023-07-31T00:29:01;99915.80;;;19.60
68588;BMP180;55560;52.174;20.996;2023-07-31T00:31:30;99915.00;;;19.56
68588;BMP180;55560;52.174;20.996;2023-07-31T00:33:58;99911.00;;;19.50
68588;BMP180;55560;52.174;20.996;2023-07-31T00:36:26;99910.80;;;19.50
68588;BMP180;55560;52.174;20.996;2023-07-31T00:38:54;99908.00;;;19.50
68588;BMP180;55560;52.174;20.996;2023-07-31T00:41:22;99901.80;;;19.40
68588;BMP180;55560;52.174;20.996;2023-07-31T00:43:50;99899.20;;;19.40
68588;BMP180;55560;52.174;20.996;2023-07-31T00:46:17;99902.60;;;19.40
68588;BMP180;55560;52.174;20.996;2023-07-31T00:48:45;99898.80;;;19.30
68588;BMP180;55560;52.174;20.996;2023-07-31T00:51:13;99899.80;;;19.30
68588;BMP180;55560;52.174;20.996;2023-07-31T00:53:42;99899.80;;;19.30
68588;BMP180;55560;52.174;20.996;2023-07-31T00:56:12;99902.20;;;19.26
68588;BMP180;55560;52.174;20.996;2023-07-31T00:58:39;99897.40;;;19.20
68588;BMP180;55560;52.174;20.996;2023-07-31T01:01:08;99902.20;;;19.20
68588;BMP180;55560;52.174;20.996;2023-07-31T01:03:36;99894.00;;;19.20
68588;BMP180;55560;52.174;20.996;2023-07-31T01:06:22;99898.80;;;19.14
68588;BMP180;55560;52.174;20.996;2023-07-31T01:12:06;99905.60;;;19.10
68588;BMP180;55560;52.174;20.996;2023-07-31T01:14:34;99911.00;;;19.10
68588;BMP180;55560;52.174;20.996;2023-07-31T01:17:02;99910.60;;;19.10
68588;BMP180;55560;52.174;20.996;2023-07-31T01:19:30;99908.60;;;19.10
68588;BMP180;55560;52.174;20.996;2023-07-31T01:28:13;99905.60;;;19.00
68588;BMP180;55560;52.174;20.996;2023-07-31T01:30:46;99905.40;;;19.00
68588;BMP180;55560;52.174;20.996;2023-07-31T01:33:16;99901.40;;;19.00
68588;BMP180;55560;52.174;20.996;2023-07-31T01:35:45;99903.20;;;18.92
68588;BMP180;55560;52.174;20.996;2023-07-31T01:38:20;99908.80;;;18.90
68588;BMP180;55560;52.174;20.996;2023-07-31T01:40:52;99913.80;;;18.90
68588;BMP180;55560;52.174;20.996;2023-07-31T01:43:21;99915.60;;;18.90
68588;BMP180;55560;52.174;20.996;2023-07-31T01:45:50;99915.40;;;18.90
68588;BMP180;55560;52.174;20.996;2023-07-31T01:48:18;99915.20;;;18.90
68588;BMP180;55560;52.174;20.996;2023-07-31T01:50:48;99911.00;;;18.90
68588;BMP180;55560;52.174;20.996;2023-07-31T01:53:16;99913.40;;;18.80
68588;BMP180;55560;52.174;20.996;2023-07-31T01:55:44;99918.40;;;18.80
68588;BMP180;55560;52.174;20.996;2023-07-31T01:58:12;99925.20;;;18.80
68588;BMP180;55560;52.174;20.996;2023-07-31T02:00:40;99919.00;;;18.80
68588;BMP180;55560;52.174;20.996;2023-07-31T02:03:08;99922.80;;;18.80
68588;BMP180;55560;52.174;20.996;2023-07-31T02:05:36;99928.00;;;18.70
68588;BMP180;55560;52.174;20.996;2023-07-31T02:08:04;99926.20;;;18.70
68588;BMP180;55560;52.174;20.996;2023-07-31T02:10:33;99923.60;;;18.70
68588;BMP180;55560;52.174;20.996;2023-07-31T02:13:01;99922.00;;;18.60
68588;BMP180;55560;52.174;20.996;2023-07-31T02:15:31;99925.60;;;18.60
68588;BMP180;55560;52.174;20.996;2023-07-31T02:17:59;99922.00;;;18.60
68588;BMP180;55560;52.174;20.996;2023-07-31T02:20:27;99921.40;;;18.60
68588;BMP180;55560;52.174;20.996;2023-07-31T02:22:55;99924.60;;;18.50
68588;BMP180;55560;52.174;20.996;2023-07-31T02:25:23;99926.80;;;18.50
68588;BMP180;55560;52.174;20.996;2023-07-31T02:27:51;99934.00;;;18.50
68588;BMP180;55560;52.174;20.996;2023-07-31T02:30:18;99936.00;;;18.40
68588;BMP180;55560;52.174;20.996;2023-07-31T02:32:46;99940.80;;;18.40
68588;BMP180;55560;52.174;20.996;2023-07-31T02:35:14;99942.40;;;18.40
68588;BMP180;55560;52.174;20.996;2023-07-31T02:37:43;99939.20;;;18.40
68588;BMP180;55560;52.174;20.996;2023-07-31T02:40:11;99940.20;;;18.40
68588;BMP180;55560;52.174;20.996;2023-07-31T02:42:39;99946.00;;;18.40
68588;BMP180;55560;52.174;20.996;2023-07-31T02:45:07;99950.60;;;18.40
68588;BMP180;55560;52.174;20.996;2023-07-31T02:47:36;99948.00;;;18.40
68588;BMP180;55560;52.174;20.996;2023-07-31T02:50:04;99948.00;;;18.40
68588;BMP180;55560;52.174;20.996;2023-07-31T02:52:32;99950.40;;;18.40
68588;BMP180;55560;52.174;20.996;2023-07-31T02:55:00;99943.60;;;18.40
68588;BMP180;55560;52.174;20.996;2023-07-31T02:57:28;99933.60;;;18.40
68588;BMP180;55560;52.174;20.996;2023-07-31T02:59:55;99940.20;;;18.40
68588;BMP180;55560;52.174;20.996;2023-07-31T03:02:23;99934.80;;;18.40
68588;BMP180;55560;52.174;20.996;2023-07-31T03:04:51;99942.60;;;18.40
68588;BMP180;55560;52.174;20.996;2023-07-31T03:07:19;99945.00;;;18.40
68588;BMP180;55560;52.174;20.996;2023-07-31T03:09:47;99940.80;;;18.40
68588;BMP180;55560;52.174;20.996;2023-07-31T03:12:15;99939.20;;;18.40
68588;BMP180;55560;52.174;20.996;2023-07-31T03:14:43;99935.60;;;18.48
68588;BMP180;55560;52.174;20.996;2023-07-31T03:17:11;99938.60;;;18.48
68588;BMP180;55560;52.174;20.996;2023-07-31T03:19:39;99940.40;;;18.42
68588;BMP180;55560;52.174;20.996;2023-07-31T03:22:07;99944.40;;;18.42
68588;BMP180;55560;52.174;20.996;2023-07-31T03:24:35;99938.40;;;18.42
68588;BMP180;55560;52.174;20.996;2023-07-31T03:27:03;99938.40;;;18.46
68588;BMP180;55560;52.174;20.996;2023-07-31T03:29:31;99939.80;;;18.50
68588;BMP180;55560;52.174;20.996;2023-07-31T03:31:58;99944.00;;;18.50
68588;BMP180;55560;52.174;20.996;2023-07-31T03:34:27;99947.60;;;18.50
68588;BMP180;55560;52.174;20.996;2023-07-31T03:36:55;99948.40;;;18.50
68588;BMP180;55560;52.174;20.996;2023-07-31T03:39:23;99954.20;;;18.50
68588;BMP180;55560;52.174;20.996;2023-07-31T03:41:51;99955.00;;;18.50
68588;BMP180;55560;52.174;20.996;2023-07-31T03:44:19;99957.20;;;18.52
68588;BMP180;55560;52.174;20.996;2023-07-31T03:46:47;99962.80;;;18.60
68588;BMP180;55560;52.174;20.996;2023-07-31T03:49:15;99962.40;;;18.60
68588;BMP180;55560;52.174;20.996;2023-07-31T03:51:43;99961.20;;;18.60
68588;BMP180;55560;52.174;20.996;2023-07-31T03:54:11;99967.80;;;18.60
68588;BMP180;55560;52.174;20.996;2023-07-31T03:56:40;99973.00;;;18.60
68588;BMP180;55560;52.174;20.996;2023-07-31T03:59:08;99974.60;;;18.60
68588;BMP180;55560;52.174;20.996;2023-07-31T04:01:36;99974.40;;;18.62
68588;BMP180;55560;52.174;20.996;2023-07-31T04:04:04;99970.80;;;18.66
68588;BMP180;55560;52.174;20.996;2023-07-31T04:06:32;99978.40;;;18.70
68588;BMP180;55560;52.174;20.996;2023-07-31T04:09:02;99975.40;;;18.70
68588;BMP180;55560;52.174;20.996;2023-07-31T04:11:30;99984.40;;;18.70
68588;BMP180;55560;52.174;20.996;2023-07-31T04:13:58;99980.80;;;18.70
68588;BMP180;55560;52.174;20.996;2023-07-31T04:16:26;99986.60;;;18.70
68588;BMP180;55560;52.174;20.996;2023-07-31T04:18:54;99987.80;;;18.70
68588;BMP180;55560;52.174;20.996;2023-07-31T04:21:22;99981.40;;;18.70
68588;BMP180;55560;52.174;20.996;2023-07-31T04:23:50;99984.60;;;18.70
68588;BMP180;55560;52.174;20.996;2023-07-31T04:26:18;99991.40;;;18.70
68588;BMP180;55560;52.174;20.996;2023-07-31T04:28:46;99991.20;;;18.70
68588;BMP180;55560;52.174;20.996;2023-07-31T04:31:13;99993.80;;;18.70
68588;BMP180;55560;52.174;20.996;2023-07-31T04:33:41;99994.40;;;18.70
68588;BMP180;55560;52.174;20.996;2023-07-31T04:36:09;100000.20;;;18.70
68588;BMP180;55560;52.174;20.996;2023-07-31T04:38:37;100001.40;;;18.70
68588;BMP180;55560;52.174;20.996;2023-07-31T04:41:05;100004.80;;;18.70
68588;BMP180;55560;52.174;20.996;2023-07-31T04:43:33;100005.60;;;18.70
68588;BMP180;55560;52.174;20.996;2023-07-31T04:46:01;100005.20;;;18.70
68588;BMP180;55560;52.174;20.996;2023-07-31T04:48:28;100003.60;;;18.70
68588;BMP180;55560;52.174;20.996;2023-07-31T04:50:56;100005.00;;;18.70
68588;BMP180;55560;52.174;20.996;2023-07-31T04:53:24;100001.80;;;18.76
68588;BMP180;55560;52.174;20.996;2023-07-31T04:55:52;100001.40;;;18.80
68588;BMP180;55560;52.174;20.996;2023-07-31T04:58:20;100004.00;;;18.80
68588;BMP180;55560;52.174;20.996;2023-07-31T05:00:47;100003.60;;;18.80
68588;BMP180;55560;52.174;20.996;2023-07-31T05:03:15;100004.80;;;18.80
68588;BMP180;55560;52.174;20.996;2023-07-31T05:05:43;100001.60;;;18.80
68588;BMP180;55560;52.174;20.996;2023-07-31T05:08:11;100001.80;;;18.80
68588;BMP180;55560;52.174;20.996;2023-07-31T05:10:39;100006.40;;;18.80
68588;BMP180;55560;52.174;20.996;2023-07-31T05:13:07;100003.80;;;18.90
68588;BMP180;55560;52.174;20.996;2023-07-31T05:15:35;100010.80;;;18.90
68588;BMP180;55560;52.174;20.996;2023-07-31T05:18:03;100013.80;;;18.90
68588;BMP180;55560;52.174;20.996;2023-07-31T05:20:31;100015.00;;;18.96
68588;BMP180;55560;52.174;20.996;2023-07-31T05:22:59;100015.00;;;19.00
68588;BMP180;55560;52.174;20.996;2023-07-31T05:25:26;100012.60;;;19.00
68588;BMP180;55560;52.174;20.996;2023-07-31T05:27:54;100007.60;;;19.00
68588;BMP180;55560;52.174;20.996;2023-07-31T05:30:22;100012.40;;;19.10
68588;BMP180;55560;52.174;20.996;2023-07-31T05:32:50;100011.00;;;19.10
68588;BMP180;55560;52.174;20.996;2023-07-31T05:35:18;100013.20;;;19.20
68588;BMP180;55560;52.174;20.996;2023-07-31T05:37:46;100024.40;;;19.20
68588;BMP180;55560;52.174;20.996;2023-07-31T05:40:14;100023.60;;;19.20
68588;BMP180;55560;52.174;20.996;2023-07-31T05:42:42;100027.40;;;19.14
68588;BMP180;55560;52.174;20.996;2023-07-31T05:45:10;100030.00;;;19.10
68588;BMP180;55560;52.174;20.996;2023-07-31T05:47:37;100032.20;;;19.20
68588;BMP180;55560;52.174;20.996;2023-07-31T05:50:06;100035.60;;;19.20
68588;BMP180;55560;52.174;20.996;2023-07-31T05:52:34;100038.00;;;19.20
68588;BMP180;55560;52.174;20.996;2023-07-31T05:55:01;100038.60;;;19.20
68588;BMP180;55560;52.174;20.996;2023-07-31T05:57:30;100037.80;;;19.28
68588;BMP180;55560;52.174;20.996;2023-07-31T05:59:58;100043.80;;;19.26
68588;BMP180;55560;52.174;20.996;2023-07-31T06:02:26;100045.20;;;19.30
68588;BMP180;55560;52.174;20.996;2023-07-31T06:04:54;100050.40;;;19.30
68588;BMP180;55560;52.174;20.996;2023-07-31T06:07:21;100050.00;;;19.30
68588;BMP180;55560;52.174;20.996;2023-07-31T06:09:49;100052.20;;;19.30
68588;BMP180;55560;52.174;20.996;2023-07-31T06:12:17;100059.20;;;19.30
68588;BMP180;55560;52.174;20.996;2023-07-31T06:14:46;100059.00;;;19.30
68588;BMP180;55560;52.174;20.996;2023-07-31T06:17:14;100059.60;;;19.32
68588;BMP180;55560;52.174;20.996;2023-07-31T06:19:42;100057.20;;;19.30
68588;BMP180;55560;52.174;20.996;2023-07-31T06:22:09;100061.00;;;19.38
68588;BMP180;55560;52.174;20.996;2023-07-31T06:24:37;100055.60;;;19.40
68588;BMP180;55560;52.174;20.996;2023-07-31T06:27:06;100057.80;;;19.40
68588;BMP180;55560;52.174;20.996;2023-07-31T06:29:34;100052.40;;;19.40
68588;BMP180;55560;52.174;20.996;2023-07-31T06:32:03;100052.00;;;19.40
68588;BMP180;55560;52.174;20.996;2023-07-31T06:34:31;100058.40;;;19.40
68588;BMP180;55560;52.174;20.996;2023-07-31T06:36:59;100062.20;;;19.40
68588;BMP180;55560;52.174;20.996;2023-07-31T06:39:29;100065.20;;;19.40
68588;BMP180;55560;52.174;20.996;2023-07-31T06:41:57;100065.40;;;19.30
68588;BMP180;55560;52.174;20.996;2023-07-31T06:44:25;100062.20;;;19.30
68588;BMP180;55560;52.174;20.996;2023-07-31T06:46:53;100062.40;;;19.32
68588;BMP180;55560;52.174;20.996;2023-07-31T06:49:21;100065.20;;;19.30
68588;BMP180;55560;52.174;20.996;2023-07-31T06:51:49;100066.60;;;19.30
68588;BMP180;55560;52.174;20.996;2023-07-31T06:54:17;100071.20;;;19.30
68588;BMP180;55560;52.174;20.996;2023-07-31T06:56:45;100074.60;;;19.30
68588;BMP180;55560;52.174;20.996;2023-07-31T06:59:12;100069.60;;;19.30
68588;BMP180;55560;52.174;20.996;2023-07-31T07:01:40;100070.40;;;19.30
68588;BMP180;55560;52.174;20.996;2023-07-31T07:04:08;100069.40;;;19.40
68588;BMP180;55560;52.174;20.996;2023-07-31T07:06:36;100069.20;;;19.40
68588;BMP180;55560;52.174;20.996;2023-07-31T07:09:05;100065.40;;;19.40
68588;BMP180;55560;52.174;20.996;2023-07-31T07:11:32;100067.20;;;19.50
68588;BMP180;55560;52.174;20.996;2023-07-31T07:14:00;100063.80;;;19.60
68588;BMP180;55560;52.174;20.996;2023-07-31T07:16:29;100064.60;;;19.70
68588;BMP180;55560;52.174;20.996;2023-07-31T07:18:56;100074.80;;;19.70
68588;BMP180;55560;52.174;20.996;2023-07-31T07:21:31;100077.00;;;19.80
68588;BMP180;55560;52.174;20.996;2023-07-31T07:23:59;100072.60;;;19.90
68588;BMP180;55560;52.174;20.996;2023-07-31T07:26:29;100075.20;;;19.96
68588;BMP180;55560;52.174;20.996;2023-07-31T07:28:57;100076.60;;;20.08
68588;BMP180;55560;52.174;20.996;2023-07-31T07:31:28;100071.20;;;20.20
68588;BMP180;55560;52.174;20.996;2023-07-31T07:33:56;100072.40;;;20.24
68588;BMP180;55560;52.174;20.996;2023-07-31T07:36:24;100083.40;;;20.34
68588;BMP180;55560;52.174;20.996;2023-07-31T07:38:52;100066.00;;;20.50
68588;BMP180;55560;52.174;20.996;2023-07-31T07:41:20;100062.80;;;20.60
68588;BMP180;55560;52.174;20.996;2023-07-31T07:43:48;100065.00;;;20.80
68588;BMP180;55560;52.174;20.996;2023-07-31T07:46:15;100068.20;;;20.90
68588;BMP180;55560;52.174;20.996;2023-07-31T07:48:44;100062.60;;;21.10
68588;BMP180;55560;52.174;20.996;2023-07-31T07:51:11;100058.20;;;21.36
68588;BMP180;55560;52.174;20.996;2023-07-31T07:53:39;100061.60;;;21.50
68588;BMP180;55560;52.174;20.996;2023-07-31T07:56:07;100068.00;;;21.60
68588;BMP180;55560;52.174;20.996;2023-07-31T07:58:35;100069.40;;;21.60
68588;BMP180;55560;52.174;20.996;2023-07-31T08:01:03;100068.80;;;21.60
68588;BMP180;55560;52.174;20.996;2023-07-31T08:03:31;100073.40;;;21.70
68588;BMP180;55560;52.174;20.996;2023-07-31T08:06:00;100070.00;;;21.70
68588;BMP180;55560;52.174;20.996;2023-07-31T08:08:28;100068.40;;;21.70
68588;BMP180;55560;52.174;20.996;2023-07-31T08:10:56;100067.20;;;21.70
68588;BMP180;55560;52.174;20.996;2023-07-31T08:13:24;100067.20;;;21.70
68588;BMP180;55560;52.174;20.996;2023-07-31T08:15:52;100061.00;;;21.80
68588;BMP180;55560;52.174;20.996;2023-07-31T08:18:19;100060.60;;;21.80
68588;BMP180;55560;52.174;20.996;2023-07-31T08:20:47;100059.20;;;21.80
68588;BMP180;55560;52.174;20.996;2023-07-31T08:23:15;100059.00;;;21.80
68588;BMP180;55560;52.174;20.996;2023-07-31T08:25:44;100062.40;;;21.80
68588;BMP180;55560;52.174;20.996;2023-07-31T08:28:12;100058.00;;;21.80
68588;BMP180;55560;52.174;20.996;2023-07-31T08:30:40;100066.80;;;21.80
68588;BMP180;55560;52.174;20.996;2023-07-31T08:33:09;100068.80;;;21.80
68588;BMP180;55560;52.174;20.996;2023-07-31T08:35:37;100060.60;;;21.90
68588;BMP180;55560;52.174;20.996;2023-07-31T08:38:05;100065.40;;;22.00
68588;BMP180;55560;52.174;20.996;2023-07-31T08:40:36;100058.60;;;22.00
68588;BMP180;55560;52.174;20.996;2023-07-31T08:43:07;100059.60;;;22.00
68588;BMP180;55560;52.174;20.996;2023-07-31T08:45:35;100060.20;;;22.10
68588;BMP180;55560;52.174;20.996;2023-07-31T08:48:03;100065.00;;;22.10
68588;BMP180;55560;52.174;20.996;2023-07-31T08:50:31;100064.20;;;22.20
68588;BMP180;55560;52.174;20.996;2023-07-31T08:53:00;100064.20;;;22.30
68588;BMP180;55560;52.174;20.996;2023-07-31T08:55:28;100064.40;;;22.20
68588;BMP180;55560;52.174;20.996;2023-07-31T08:57:56;100057.00;;;22.30
68588;BMP180;55560;52.174;20.996;2023-07-31T09:00:25;100057.20;;;22.30
68588;BMP180;55560;52.174;20.996;2023-07-31T09:03:02;100058.60;;;22.38
68588;BMP180;55560;52.174;20.996;2023-07-31T09:05:31;100060.80;;;22.50
68588;BMP180;55560;52.174;20.996;2023-07-31T09:08:00;100055.80;;;22.50
68588;BMP180;55560;52.174;20.996;2023-07-31T09:10:29;100057.60;;;22.66
68588;BMP180;55560;52.174;20.996;2023-07-31T09:12:57;100054.60;;;22.80
68588;BMP180;55560;52.174;20.996;2023-07-31T09:15:26;100061.00;;;22.90
68588;BMP180;55560;52.174;20.996;2023-07-31T09:18:06;100062.60;;;23.00
68588;BMP180;55560;52.174;20.996;2023-07-31T09:20:35;100059.60;;;23.10
68588;BMP180;55560;52.174;20.996;2023-07-31T09:23:12;100056.80;;;23.18
68588;BMP180;55560;52.174;20.996;2023-07-31T09:25:44;100063.00;;;23.30
68588;BMP180;55560;52.174;20.996;2023-07-31T09:28:12;100065.20;;;23.40
68588;BMP180;55560;52.174;20.996;2023-07-31T09:30:47;100063.00;;;23.50
68588;BMP180;55560;52.174;20.996;2023-07-31T09:33:16;100060.20;;;23.50
68588;BMP180;55560;52.174;20.996;2023-07-31T09:35:44;100056.40;;;23.60
68588;BMP180;55560;52.174;20.996;2023-07-31T09:38:14;100057.40;;;23.60
68588;BMP180;55560;52.174;20.996;2023-07-31T09:40:48;100061.60;;;23.70
68588;BMP180;55560;52.174;20.996;2023-07-31T09:43:21;100056.00;;;23.80
68588;BMP180;55560;52.174;20.996;2023-07-31T09:45:55;100057.80;;;23.82
68588;BMP180;55560;52.174;20.996;2023-07-31T09:48:24;100057.20;;;23.90
68588;BMP180;55560;52.174;20.996;2023-07-31T09:50:55;100063.40;;;24.00
68588;BMP180;55560;52.174;20.996;2023-07-31T09:53:30;100061.40;;;24.00
68588;BMP180;55560;52.174;20.996;2023-07-31T09:55:58;100057.60;;;23.98
68588;BMP180;55560;52.174;20.996;2023-07-31T09:58:29;100055.00;;;24.00
68588;BMP180;55560;52.174;20.996;2023-07-31T10:00:58;100056.00;;;24.10
68588;BMP180;55560;52.174;20.996;2023-07-31T10:03:29;100058.00;;;24.08
68588;BMP180;55560;52.174;20.996;2023-07-31T10:05:58;100063.00;;;24.00
68588;BMP180;55560;52.174;20.996;2023-07-31T10:08:30;100056.60;;;24.10
68588;BMP180;55560;52.174;20.996;2023-07-31T10:11:00;100054.20;;;24.10
68588;BMP180;55560;52.174;20.996;2023-07-31T10:13:30;100060.60;;;24.10
68588;BMP180;55560;52.174;20.996;2023-07-31T10:15:59;100047.40;;;24.00
68588;BMP180;55560;52.174;20.996;2023-07-31T10:18:29;100053.00;;;24.00
68588;BMP180;55560;52.174;20.996;2023-07-31T10:20:57;100053.60;;;24.00
68588;BMP180;55560;52.174;20.996;2023-07-31T10:23:25;100048.40;;;24.00
68588;BMP180;55560;52.174;20.996;2023-07-31T10:25:53;100051.20;;;24.00
68588;BMP180;55560;52.174;20.996;2023-07-31T10:28:22;100052.80;;;24.00
68588;BMP180;55560;52.174;20.996;2023-07-31T10:30:51;100046.60;;;24.10
68588;BMP180;55560;52.174;20.996;2023-07-31T10:33:20;100050.20;;;24.10
68588;BMP180;55560;52.174;20.996;2023-07-31T10:35:48;100052.40;;;24.24
68588;BMP180;55560;52.174;20.996;2023-07-31T10:38:16;100047.60;;;24.30
68588;BMP180;55560;52.174;20.996;2023-07-31T10:40:44;100057.40;;;24.30
68588;BMP180;55560;52.174;20.996;2023-07-31T10:43:25;100049.80;;;24.30
68588;BMP180;55560;52.174;20.996;2023-07-31T10:45:55;100048.80;;;24.30
68588;BMP180;55560;52.174;20.996;2023-07-31T10:48:23;100051.40;;;24.30
68588;BMP180;55560;52.174;20.996;2023-07-31T10:50:55;100045.20;;;24.30
68588;BMP180;55560;52.174;20.996;2023-07-31T10:53:30;100051.00;;;24.30
68588;BMP180;55560;52.174;20.996;2023-07-31T10:56:03;100045.60;;;24.40
68588;BMP180;55560;52.174;20.996;2023-07-31T10:58:32;100045.00;;;24.50
68588;BMP180;55560;52.174;20.996;2023-07-31T11:01:03;100039.60;;;24.60
68588;BMP180;55560;52.174;20.996;2023-07-31T11:03:49;100044.00;;;24.70
68588;BMP180;55560;52.174;20.996;2023-07-31T11:06:20;100044.60;;;24.80
68588;BMP180;55560;52.174;20.996;2023-07-31T11:08:50;100039.80;;;24.90
68588;BMP180;55560;52.174;20.996;2023-07-31T11:11:20;100045.60;;;24.90
68588;BMP180;55560;52.174;20.996;2023-07-31T11:13:53;100044.20;;;25.00
68588;BMP180;55560;52.174;20.996;2023-07-31T11:16:24;100045.80;;;25.10
68588;BMP180;55560;52.174;20.996;2023-07-31T11:18:53;100047.00;;;25.20
68588;BMP180;55560;52.174;20.996;2023-07-31T11:21:24;100039.80;;;25.30
68588;BMP180;55560;52.174;20.996;2023-07-31T11:23:57;100041.20;;;25.30
68588;BMP180;55560;52.174;20.996;2023-07-31T11:26:28;100046.20;;;25.44
68588;BMP180;55560;52.174;20.996;2023-07-31T11:28:56;100037.20;;;25.60
68588;BMP180;55560;52.174;20.996;2023-07-31T11:31:23;100042.00;;;25.70
68588;BMP180;55560;52.174;20.996;2023-07-31T11:34:04;100033.60;;;25.60
68588;BMP180;55560;52.174;20.996;2023-07-31T11:36:32;100031.00;;;25.60
68588;BMP180;55560;52.174;20.996;2023-07-31T11:39:07;100044.80;;;25.60
68588;BMP180;55560;52.174;20.996;2023-07-31T11:41:35;100041.40;;;25.60
68588;BMP180;55560;52.174;20.996;2023-07-31T11:44:03;100041.20;;;25.70
68588;BMP180;55560;52.174;20.996;2023-07-31T11:46:51;100032.60;;;25.56
68588;BMP180;55560;52.174;20.996;2023-07-31T11:49:19;100036.20;;;25.60
68588;BMP180;55560;52.174;20.996;2023-07-31T11:51:47;100031.20;;;25.56
68588;BMP180;55560;52.174;20.996;2023-07-31T11:54:15;100039.00;;;25.60
68588;BMP180;55560;52.174;20.996;2023-07-31T11:56:43;100030.60;;;25.70
68588;BMP180;55560;52.174;20.996;2023-07-31T11:59:12;100032.20;;;25.70
68588;BMP180;55560;52.174;20.996;2023-07-31T12:01:40;100032.20;;;25.60
68588;BMP180;55560;52.174;20.996;2023-07-31T12:04:08;100028.40;;;25.60
68588;BMP180;55560;52.174;20.996;2023-07-31T12:06:36;100029.80;;;25.52
68588;BMP180;55560;52.174;20.996;2023-07-31T12:09:06;100029.20;;;25.50
68588;BMP180;55560;52.174;20.996;2023-07-31T12:11:44;100025.60;;;25.38
68588;BMP180;55560;52.174;20.996;2023-07-31T12:14:28;100026.60;;;25.20
68588;BMP180;55560;52.174;20.996;2023-07-31T12:17:00;100028.40;;;25.20
68588;BMP180;55560;52.174;20.996;2023-07-31T12:19:29;100025.80;;;25.10
68588;BMP180;55560;52.174;20.996;2023-07-31T12:22:02;100025.40;;;25.20
68588;BMP180;55560;52.174;20.996;2023-07-31T12:24:40;100021.00;;;25.20
68588;BMP180;55560;52.174;20.996;2023-07-31T12:27:17;100023.80;;;25.20
68588;BMP180;55560;52.174;20.996;2023-07-31T12:29:46;100019.80;;;25.30
68588;BMP180;55560;52.174;20.996;2023-07-31T12:32:23;100016.00;;;25.40
68588;BMP180;55560;52.174;20.996;2023-07-31T12:34:59;100020.20;;;25.40
68588;BMP180;55560;52.174;20.996;2023-07-31T12:37:28;100015.80;;;25.30
68588;BMP180;55560;52.174;20.996;2023-07-31T12:39:56;100021.00;;;25.30
68588;BMP180;55560;52.174;20.996;2023-07-31T12:42:30;100013.20;;;25.20
68588;BMP180;55560;52.174;20.996;2023-07-31T12:44:58;100008.60;;;25.08
68588;BMP180;55560;52.174;20.996;2023-07-31T12:47:26;100000.00;;;25.00
68588;BMP180;55560;52.174;20.996;2023-07-31T12:49:54;100004.60;;;24.90
68588;BMP180;55560;52.174;20.996;2023-07-31T12:52:22;99999.00;;;24.90
68588;BMP180;55560;52.174;20.996;2023-07-31T12:54:50;99999.00;;;24.88
68588;BMP180;55560;52.174;20.996;2023-07-31T12:57:17;99997.40;;;24.80
68588;BMP180;55560;52.174;20.996;2023-07-31T12:59:45;99993.40;;;24.80
68588;BMP180;55560;52.174;20.996;2023-07-31T13:02:13;99992.80;;;24.70
68588;BMP180;55560;52.174;20.996;2023-07-31T13:04:41;99992.00;;;24.70
68588;BMP180;55560;52.174;20.996;2023-07-31T13:07:08;99990.80;;;24.70
68588;BMP180;55560;52.174;20.996;2023-07-31T13:09:36;99986.20;;;24.70
68588;BMP180;55560;52.174;20.996;2023-07-31T13:12:04;99986.00;;;24.70
68588;BMP180;55560;52.174;20.996;2023-07-31T13:14:32;99983.40;;;24.80
68588;BMP180;55560;52.174;20.996;2023-07-31T13:17:00;99978.80;;;24.80
68588;BMP180;55560;52.174;20.996;2023-07-31T13:19:31;99969.40;;;24.80
68588;BMP180;55560;52.174;20.996;2023-07-31T13:22:01;99967.40;;;24.80
68588;BMP180;55560;52.174;20.996;2023-07-31T13:24:29;99968.60;;;24.92
68588;BMP180;55560;52.174;20.996;2023-07-31T13:26:57;99969.00;;;25.10
68588;BMP180;55560;52.174;20.996;2023-07-31T13:29:25;99965.80;;;25.40
68588;BMP180;55560;52.174;20.996;2023-07-31T13:31:53;99960.60;;;25.68
68588;BMP180;55560;52.174;20.996;2023-07-31T13:34:21;99961.20;;;25.70
68588;BMP180;55560;52.174;20.996;2023-07-31T13:36:49;99957.60;;;25.80
68588;BMP180;55560;52.174;20.996;2023-07-31T13:39:17;99954.60;;;26.00
68588;BMP180;55560;52.174;20.996;2023-07-31T13:41:45;99952.60;;;26.20
68588;BMP180;55560;52.174;20.996;2023-07-31T13:44:12;99958.00;;;26.30
68588;BMP180;55560;52.174;20.996;2023-07-31T13:46:43;99953.00;;;26.56
68588;BMP180;55560;52.174;20.996;2023-07-31T13:49:11;99956.80;;;26.84
68588;BMP180;55560;52.174;20.996;2023-07-31T13:51:40;99950.20;;;27.20
68588;BMP180;55560;52.174;20.996;2023-07-31T13:54:08;99952.00;;;27.58
68588;BMP180;55560;52.174;20.996;2023-07-31T13:56:35;99950.20;;;28.00
68588;BMP180;55560;52.174;20.996;2023-07-31T13:59:04;99949.80;;;28.62
68588;BMP180;55560;52.174;20.996;2023-07-31T14:01:32;99952.40;;;29.20
68588;BMP180;55560;52.174;20.996;2023-07-31T14:04:00;99946.40;;;29.98
68588;BMP180;55560;52.174;20.996;2023-07-31T14:06:28;99946.20;;;30.38
68588;BMP180;55560;52.174;20.996;2023-07-31T14:08:56;99940.80;;;30.76